sensor_id;sensor_type;location;lat;lon;timestamp;P1;durP1;ratioP1;P2;durP2;ratioP2
76807;SDS011;65758;45.458;11.062;2024-01-11T00:01:28;14.70;;;9.50;;
76807;SDS011;65758;45.458;11.062;2024-01-11T00:03:55;14.20;;;9.30;;
76807;SDS011;65758;45.458;11.062;2024-01-11T00:08:49;13.50;;;8.20;;
76807;SDS011;65758;45.458;11.062;2024-01-11T00:13:44;12.30;;;8.70;;
76807;SDS011;65758;45.458;11.062;2024-01-11T00:18:37;13.80;;;8.20;;
76807;SDS011;65758;45.458;11.062;2024-01-11T00:21:04;14.50;;;8.40;;
76807;SDS011;65758;45.458;11.062;2024-01-11T00:25:58;14.70;;;8.10;;
76807;SDS011;65758;45.458;11.062;2024-01-11T00:28:26;16.00;;;8.40;;
76807;SDS011;65758;45.458;11.062;2024-01-11T00:30:53;11.60;;;7.40;;
76807;SDS011;65758;45.458;11.062;2024-01-11T00:33:20;10.50;;;6.70;;
76807;SDS011;65758;45.458;11.062;2024-01-11T00:35:47;10.70;;;6.60;;
76807;SDS011;65758;45.458;11.062;2024-01-11T00:38:14;10.50;;;6.30;;
76807;SDS011;65758;45.458;11.062;2024-01-11T00:43:07;10.80;;;5.80;;
76807;SDS011;65758;45.458;11.062;2024-01-11T00:48:01;9.80;;;5.60;;
76807;SDS011;65758;45.458;11.062;2024-01-11T00:50:30;8.80;;;5.30;;
76807;SDS011;65758;45.458;11.062;2024-01-11T00:52:57;9.80;;;6.40;;
76807;SDS011;65758;45.458;11.062;2024-01-11T00:57:51;9.40;;;5.60;;
76807;SDS011;65758;45.458;11.062;2024-01-11T01:00:18;8.80;;;5.50;;
76807;SDS011;65758;45.458;11.062;2024-01-11T01:02:44;9.30;;;6.20;;
76807;SDS011;65758;45.458;11.062;2024-01-11T01:05:12;10.90;;;5.60;;
76807;SDS011;65758;45.458;11.062;2024-01-11T01:07:39;8.60;;;5.80;;
76807;SDS011;65758;45.458;11.062;2024-01-11T01:10:07;10.10;;;6.60;;
76807;SDS011;65758;45.458;11.062;2024-01-11T01:12:34;8.80;;;5.70;;
76807;SDS011;65758;45.458;11.062;2024-01-11T01:15:01;8.70;;;6.20;;
76807;SDS011;65758;45.458;11.062;2024-01-11T01:17:28;12.60;;;6.70;;
76807;SDS011;65758;45.458;11.062;2024-01-11T01:19:55;10.40;;;6.40;;
76807;SDS011;65758;45.458;11.062;2024-01-11T01:22:24;13.70;;;8.30;;
76807;SDS011;65758;45.458;11.062;2024-01-11T01:24:51;33.40;;;14.70;;
76807;SDS011;65758;45.458;11.062;2024-01-11T01:27:17;24.20;;;14.80;;
76807;SDS011;65758;45.458;11.062;2024-01-11T01:29:44;28.30;;;18.00;;
76807;SDS011;65758;45.458;11.062;2024-01-11T01:32:12;21.80;;;14.90;;
76807;SDS011;65758;45.458;11.062;2024-01-11T01:37:06;19.40;;;11.50;;
76807;SDS011;65758;45.458;11.062;2024-01-11T01:42:03;21.30;;;13.00;;
76807;SDS011;65758;45.458;11.062;2024-01-11T01:44:31;27.70;;;13.60;;
76807;SDS011;65758;45.458;11.062;2024-01-11T01:49:24;18.20;;;10.70;;
76807;SDS011;65758;45.458;11.062;2024-01-11T01:51:52;14.50;;;9.10;;
76807;SDS011;65758;45.458;11.062;2024-01-11T01:54:20;16.40;;;9.90;;
76807;SDS011;65758;45.458;11.062;2024-01-11T01:56:49;15.80;;;9.20;;
76807;SDS011;65758;45.458;11.062;2024-01-11T01:59:16;14.30;;;9.30;;
76807;SDS011;65758;45.458;11.062;2024-01-11T02:01:43;18.40;;;11.20;;
76807;SDS011;65758;45.458;11.062;2024-01-11T02:04:10;17.20;;;9.60;;
76807;SDS011;65758;45.458;11.062;2024-01-11T02:06:38;14.60;;;8.20;;
76807;SDS011;65758;45.458;11.062;2024-01-11T02:09:05;12.60;;;7.70;;
76807;SDS011;65758;45.458;11.062;2024-01-11T02:11:34;13.20;;;9.10;;
76807;SDS011;65758;45.458;11.062;2024-01-11T02:16:29;12.30;;;8.20;;
76807;SDS011;65758;45.458;11.062;2024-01-11T02:18:55;15.00;;;9.10;;
76807;SDS011;65758;45.458;11.062;2024-01-11T02:21:22;11.70;;;8.00;;
76807;SDS011;65758;45.458;11.062;2024-01-11T02:24:09;14.10;;;8.50;;
76807;SDS011;65758;45.458;11.062;2024-01-11T02:26:37;13.50;;;8.70;;
76807;SDS011;65758;45.458;11.062;2024-01-11T02:29:25;16.70;;;8.40;;
76807;SDS011;65758;45.458;11.062;2024-01-11T02:31:52;15.60;;;9.00;;
76807;SDS011;65758;45.458;11.062;2024-01-11T02:34:19;13.00;;;8.40;;
76807;SDS011;65758;45.458;11.062;2024-01-11T02:36:47;15.20;;;8.70;;
76807;SDS011;65758;45.458;11.062;2024-01-11T02:41:43;12.80;;;7.70;;
76807;SDS011;65758;45.458;11.062;2024-01-11T02:44:11;13.40;;;8.40;;
76807;SDS011;65758;45.458;11.062;2024-01-11T02:46:38;16.30;;;7.90;;
76807;SDS011;65758;45.458;11.062;2024-01-11T02:51:31;12.40;;;7.10;;
76807;SDS011;65758;45.458;11.062;2024-01-11T02:53:58;14.20;;;7.80;;
76807;SDS011;65758;45.458;11.062;2024-01-11T02:56:25;13.70;;;7.90;;
76807;SDS011;65758;45.458;11.062;2024-01-11T02:58:54;12.50;;;7.90;;
76807;SDS011;65758;45.458;11.062;2024-01-11T03:03:48;12.30;;;7.00;;
76807;SDS011;65758;45.458;11.062;2024-01-11T03:06:18;10.80;;;6.60;;
76807;SDS011;65758;45.458;11.062;2024-01-11T03:08:48;12.20;;;7.10;;
76807;SDS011;65758;45.458;11.062;2024-01-11T03:11:16;12.20;;;7.50;;
76807;SDS011;65758;45.458;11.062;2024-01-11T03:13:43;14.80;;;7.50;;
76807;SDS011;65758;45.458;11.062;2024-01-11T03:18:36;10.90;;;6.50;;
76807;SDS011;65758;45.458;11.062;2024-01-11T03:21:04;12.30;;;8.10;;
76807;SDS011;65758;45.458;11.062;2024-01-11T03:23:31;11.00;;;7.20;;
76807;SDS011;65758;45.458;11.062;2024-01-11T03:25:58;13.70;;;7.90;;
76807;SDS011;65758;45.458;11.062;2024-01-11T03:30:52;14.40;;;7.00;;
76807;SDS011;65758;45.458;11.062;2024-01-11T03:35:47;14.60;;;6.90;;
76807;SDS011;65758;45.458;11.062;2024-01-11T03:40:40;12.00;;;6.50;;
76807;SDS011;65758;45.458;11.062;2024-01-11T03:43:07;11.80;;;6.90;;
76807;SDS011;65758;45.458;11.062;2024-01-11T03:45:34;13.70;;;7.10;;
76807;SDS011;65758;45.458;11.062;2024-01-11T03:48:01;9.90;;;6.30;;
76807;SDS011;65758;45.458;11.062;2024-01-11T03:50:28;13.70;;;6.90;;
76807;SDS011;65758;45.458;11.062;2024-01-11T03:55:21;9.80;;;6.20;;
76807;SDS011;65758;45.458;11.062;2024-01-11T03:57:48;11.80;;;7.40;;
76807;SDS011;65758;45.458;11.062;2024-01-11T04:00:15;9.90;;;6.70;;
76807;SDS011;65758;45.458;11.062;2024-01-11T04:02:42;12.80;;;7.60;;
76807;SDS011;65758;45.458;11.062;2024-01-11T04:07:36;10.80;;;6.90;;
76807;SDS011;65758;45.458;11.062;2024-01-11T04:10:02;13.40;;;7.40;;
76807;SDS011;65758;45.458;11.062;2024-01-11T04:12:30;12.80;;;7.10;;
76807;SDS011;65758;45.458;11.062;2024-01-11T04:14:57;13.80;;;7.70;;
76807;SDS011;65758;45.458;11.062;2024-01-11T04:17:24;12.90;;;7.20;;
76807;SDS011;65758;45.458;11.062;2024-01-11T04:19:51;12.10;;;7.20;;
76807;SDS011;65758;45.458;11.062;2024-01-11T04:22:18;12.50;;;7.80;;
76807;SDS011;65758;45.458;11.062;2024-01-11T04:24:44;12.10;;;7.60;;
76807;SDS011;65758;45.458;11.062;2024-01-11T04:27:11;12.10;;;7.20;;
76807;SDS011;65758;45.458;11.062;2024-01-11T04:29:38;11.10;;;7.40;;
76807;SDS011;65758;45.458;11.062;2024-01-11T04:32:05;11.50;;;7.30;;
76807;SDS011;65758;45.458;11.062;2024-01-11T04:36:59;11.10;;;6.80;;
76807;SDS011;65758;45.458;11.062;2024-01-11T04:39:26;14.70;;;7.30;;
76807;SDS011;65758;45.458;11.062;2024-01-11T04:44:19;13.20;;;7.40;;
76807;SDS011;65758;45.458;11.062;2024-01-11T04:46:46;13.00;;;7.40;;
76807;SDS011;65758;45.458;11.062;2024-01-11T04:49:13;12.50;;;7.60;;
76807;SDS011;65758;45.458;11.062;2024-01-11T04:51:40;14.90;;;7.70;;
76807;SDS011;65758;45.458;11.062;2024-01-11T04:56:33;13.40;;;7.90;;
76807;SDS011;65758;45.458;11.062;2024-01-11T04:59:01;14.10;;;8.00;;
76807;SDS011;65758;45.458;11.062;2024-01-11T05:03:54;14.60;;;7.50;;
76807;SDS011;65758;45.458;11.062;2024-01-11T05:06:21;13.00;;;7.20;;
76807;SDS011;65758;45.458;11.062;2024-01-11T05:08:49;13.60;;;7.80;;
76807;SDS011;65758;45.458;11.062;2024-01-11T05:11:23;13.90;;;8.00;;
76807;SDS011;65758;45.458;11.062;2024-01-11T05:13:52;11.40;;;7.10;;
76807;SDS011;65758;45.458;11.062;2024-01-11T05:16:23;12.30;;;7.40;;
76807;SDS011;65758;45.458;11.062;2024-01-11T05:18:51;14.70;;;7.50;;
76807;SDS011;65758;45.458;11.062;2024-01-11T05:21:19;15.40;;;7.90;;
76807;SDS011;65758;45.458;11.062;2024-01-11T05:23:47;14.70;;;8.50;;
76807;SDS011;65758;45.458;11.062;2024-01-11T05:26:16;12.90;;;7.50;;
76807;SDS011;65758;45.458;11.062;2024-01-11T05:28:43;12.20;;;7.40;;
76807;SDS011;65758;45.458;11.062;2024-01-11T05:31:11;12.20;;;8.00;;
76807;SDS011;65758;45.458;11.062;2024-01-11T05:33:40;10.40;;;6.80;;
76807;SDS011;65758;45.458;11.062;2024-01-11T05:36:07;10.00;;;6.50;;
76807;SDS011;65758;45.458;11.062;2024-01-11T05:38:34;10.40;;;6.70;;
76807;SDS011;65758;45.458;11.062;2024-01-11T05:41:02;10.50;;;7.40;;
76807;SDS011;65758;45.458;11.062;2024-01-11T05:43:29;15.00;;;6.70;;
76807;SDS011;65758;45.458;11.062;2024-01-11T05:46:14;11.00;;;6.50;;
76807;SDS011;65758;45.458;11.062;2024-01-11T05:48:41;18.60;;;7.50;;
76807;SDS011;65758;45.458;11.062;2024-01-11T05:51:09;13.70;;;7.50;;
76807;SDS011;65758;45.458;11.062;2024-01-11T05:53:36;13.20;;;8.20;;
76807;SDS011;65758;45.458;11.062;2024-01-11T05:56:09;10.70;;;6.90;;
76807;SDS011;65758;45.458;11.062;2024-01-11T05:58:37;10.10;;;6.80;;
76807;SDS011;65758;45.458;11.062;2024-01-11T06:01:05;10.30;;;7.00;;
76807;SDS011;65758;45.458;11.062;2024-01-11T06:03:33;14.00;;;8.00;;
76807;SDS011;65758;45.458;11.062;2024-01-11T06:06:02;11.90;;;6.70;;
76807;SDS011;65758;45.458;11.062;2024-01-11T06:08:30;11.40;;;6.90;;
76807;SDS011;65758;45.458;11.062;2024-01-11T06:10:58;12.20;;;7.60;;
76807;SDS011;65758;45.458;11.062;2024-01-11T06:13:25;12.60;;;7.20;;
76807;SDS011;65758;45.458;11.062;2024-01-11T06:15:52;12.20;;;7.50;;
76807;SDS011;65758;45.458;11.062;2024-01-11T06:18:20;11.70;;;6.70;;
76807;SDS011;65758;45.458;11.062;2024-01-11T06:20:47;16.90;;;7.70;;
76807;SDS011;65758;45.458;11.062;2024-01-11T06:23:14;13.20;;;8.20;;
76807;SDS011;65758;45.458;11.062;2024-01-11T06:25:43;13.90;;;8.30;;
76807;SDS011;65758;45.458;11.062;2024-01-11T06:28:13;14.30;;;7.50;;
76807;SDS011;65758;45.458;11.062;2024-01-11T06:30:40;13.30;;;8.20;;
76807;SDS011;65758;45.458;11.062;2024-01-11T06:33:07;14.90;;;8.10;;
76807;SDS011;65758;45.458;11.062;2024-01-11T06:35:34;12.60;;;7.90;;
76807;SDS011;65758;45.458;11.062;2024-01-11T06:38:01;16.30;;;8.40;;
76807;SDS011;65758;45.458;11.062;2024-01-11T06:40:29;12.60;;;7.80;;
76807;SDS011;65758;45.458;11.062;2024-01-11T06:42:56;16.50;;;8.00;;
76807;SDS011;65758;45.458;11.062;2024-01-11T06:45:23;15.90;;;8.10;;
76807;SDS011;65758;45.458;11.062;2024-01-11T06:47:49;18.20;;;8.40;;
76807;SDS011;65758;45.458;11.062;2024-01-11T06:50:16;15.00;;;8.20;;
76807;SDS011;65758;45.458;11.062;2024-01-11T06:52:44;15.20;;;8.70;;
76807;SDS011;65758;45.458;11.062;2024-01-11T06:57:38;16.20;;;8.30;;
76807;SDS011;65758;45.458;11.062;2024-01-11T07:02:34;10.80;;;7.40;;
76807;SDS011;65758;45.458;11.062;2024-01-11T07:05:02;16.90;;;7.40;;
76807;SDS011;65758;45.458;11.062;2024-01-11T07:07:29;10.60;;;7.20;;
76807;SDS011;65758;45.458;11.062;2024-01-11T07:09:56;16.60;;;9.30;;
76807;SDS011;65758;45.458;11.062;2024-01-11T07:12:23;25.90;;;9.50;;
76807;SDS011;65758;45.458;11.062;2024-01-11T07:14:49;20.40;;;8.00;;
76807;SDS011;65758;45.458;11.062;2024-01-11T07:17:16;17.10;;;8.50;;
76807;SDS011;65758;45.458;11.062;2024-01-11T07:19:44;13.10;;;7.90;;
76807;SDS011;65758;45.458;11.062;2024-01-11T07:24:37;15.30;;;9.40;;
76807;SDS011;65758;45.458;11.062;2024-01-11T07:27:05;20.10;;;11.30;;
76807;SDS011;65758;45.458;11.062;2024-01-11T07:29:33;22.00;;;11.50;;
76807;SDS011;65758;45.458;11.062;2024-01-11T07:32:00;23.60;;;12.70;;
76807;SDS011;65758;45.458;11.062;2024-01-11T07:34:27;19.10;;;11.30;;
76807;SDS011;65758;45.458;11.062;2024-01-11T07:36:54;18.70;;;10.20;;
76807;SDS011;65758;45.458;11.062;2024-01-11T07:39:23;18.90;;;11.80;;
76807;SDS011;65758;45.458;11.062;2024-01-11T07:41:51;25.50;;;11.90;;
76807;SDS011;65758;45.458;11.062;2024-01-11T07:44:19;22.80;;;11.40;;
76807;SDS011;65758;45.458;11.062;2024-01-11T07:46:47;18.90;;;11.80;;
76807;SDS011;65758;45.458;11.062;2024-01-11T07:49:20;15.40;;;9.70;;
76807;SDS011;65758;45.458;11.062;2024-01-11T07:51:47;18.50;;;11.10;;
76807;SDS011;65758;45.458;11.062;2024-01-11T07:54:15;17.10;;;10.60;;
76807;SDS011;65758;45.458;11.062;2024-01-11T07:59:09;19.40;;;10.40;;
76807;SDS011;65758;45.458;11.062;2024-01-11T08:01:40;22.40;;;14.20;;
76807;SDS011;65758;45.458;11.062;2024-01-11T08:04:07;19.10;;;14.40;;
76807;SDS011;65758;45.458;11.062;2024-01-11T08:06:34;22.10;;;13.90;;
76807;SDS011;65758;45.458;11.062;2024-01-11T08:11:31;19.40;;;12.10;;
76807;SDS011;65758;45.458;11.062;2024-01-11T08:14:03;16.50;;;10.50;;
76807;SDS011;65758;45.458;11.062;2024-01-11T08:16:33;15.70;;;10.30;;
76807;SDS011;65758;45.458;11.062;2024-01-11T08:19:00;18.20;;;11.10;;
76807;SDS011;65758;45.458;11.062;2024-01-11T08:21:28;19.70;;;11.90;;
76807;SDS011;65758;45.458;11.062;2024-01-11T08:23:55;17.20;;;11.20;;
76807;SDS011;65758;45.458;11.062;2024-01-11T08:26:28;19.00;;;11.10;;
76807;SDS011;65758;45.458;11.062;2024-01-11T08:28:57;21.90;;;11.60;;
76807;SDS011;65758;45.458;11.062;2024-01-11T08:31:24;19.40;;;11.60;;
76807;SDS011;65758;45.458;11.062;2024-01-11T08:33:51;18.60;;;11.30;;
76807;SDS011;65758;45.458;11.062;2024-01-11T08:36:20;22.00;;;12.30;;
76807;SDS011;65758;45.458;11.062;2024-01-11T08:38:47;23.70;;;11.20;;
76807;SDS011;65758;45.458;11.062;2024-01-11T08:41:14;19.80;;;11.10;;
76807;SDS011;65758;45.458;11.062;2024-01-11T08:43:41;16.10;;;11.00;;
76807;SDS011;65758;45.458;11.062;2024-01-11T08:46:07;20.60;;;11.90;;
76807;SDS011;65758;45.458;11.062;2024-01-11T08:48:34;19.10;;;11.00;;
76807;SDS011;65758;45.458;11.062;2024-01-11T08:51:01;19.00;;;11.90;;
76807;SDS011;65758;45.458;11.062;2024-01-11T08:53:28;18.70;;;11.00;;
76807;SDS011;65758;45.458;11.062;2024-01-11T08:58:23;19.50;;;11.80;;
76807;SDS011;65758;45.458;11.062;2024-01-11T09:00:51;17.60;;;11.70;;
76807;SDS011;65758;45.458;11.062;2024-01-11T09:05:45;19.10;;;10.90;;
76807;SDS011;65758;45.458;11.062;2024-01-11T09:08:12;17.90;;;10.80;;
76807;SDS011;65758;45.458;11.062;2024-01-11T09:10:39;16.10;;;10.90;;
76807;SDS011;65758;45.458;11.062;2024-01-11T09:13:08;20.00;;;11.60;;
76807;SDS011;65758;45.458;11.062;2024-01-11T09:15:38;19.10;;;11.20;;
76807;SDS011;65758;45.458;11.062;2024-01-11T09:18:04;15.30;;;10.40;;
76807;SDS011;65758;45.458;11.062;2024-01-11T09:20:32;24.20;;;13.10;;
76807;SDS011;65758;45.458;11.062;2024-01-11T09:23:00;18.70;;;10.70;;
76807;SDS011;65758;45.458;11.062;2024-01-11T09:25:30;20.50;;;11.90;;
76807;SDS011;65758;45.458;11.062;2024-01-11T09:27:57;19.50;;;12.60;;
76807;SDS011;65758;45.458;11.062;2024-01-11T09:30:24;16.80;;;11.30;;
76807;SDS011;65758;45.458;11.062;2024-01-11T09:32:51;16.70;;;10.50;;
76807;SDS011;65758;45.458;11.062;2024-01-11T09:35:19;20.10;;;11.50;;
76807;SDS011;65758;45.458;11.062;2024-01-11T09:37:46;18.70;;;10.60;;
76807;SDS011;65758;45.458;11.062;2024-01-11T09:40:13;19.30;;;10.00;;
76807;SDS011;65758;45.458;11.062;2024-01-11T09:42:40;19.50;;;11.30;;
76807;SDS011;65758;45.458;11.062;2024-01-11T09:45:15;17.40;;;10.40;;
76807;SDS011;65758;45.458;11.062;2024-01-11T09:47:43;18.40;;;10.60;;
76807;SDS011;65758;45.458;11.062;2024-01-11T09:50:17;16.40;;;10.40;;
76807;SDS011;65758;45.458;11.062;2024-01-11T09:52:45;18.10;;;10.80;;
76807;SDS011;65758;45.458;11.062;2024-01-11T09:55:15;16.90;;;10.70;;
76807;SDS011;65758;45.458;11.062;2024-01-11T09:57:46;19.60;;;10.80;;
76807;SDS011;65758;45.458;11.062;2024-01-11T10:00:22;20.20;;;11.30;;
76807;SDS011;65758;45.458;11.062;2024-01-11T10:02:50;16.20;;;10.00;;
76807;SDS011;65758;45.458;11.062;2024-01-11T10:05:18;19.40;;;11.40;;
76807;SDS011;65758;45.458;11.062;2024-01-11T10:07:46;17.80;;;10.30;;
76807;SDS011;65758;45.458;11.062;2024-01-11T10:12:42;20.60;;;11.50;;
76807;SDS011;65758;45.458;11.062;2024-01-11T10:15:09;22.30;;;11.80;;
76807;SDS011;65758;45.458;11.062;2024-01-11T10:17:41;20.40;;;13.30;;
76807;SDS011;65758;45.458;11.062;2024-01-11T10:20:12;20.00;;;12.90;;
76807;SDS011;65758;45.458;11.062;2024-01-11T10:22:51;23.70;;;14.50;;
76807;SDS011;65758;45.458;11.062;2024-01-11T10:25:19;23.20;;;14.20;;
76807;SDS011;65758;45.458;11.062;2024-01-11T10:27:46;22.50;;;13.60;;
76807;SDS011;65758;45.458;11.062;2024-01-11T10:32:43;32.50;;;17.60;;
76807;SDS011;65758;45.458;11.062;2024-01-11T10:35:11;27.10;;;15.20;;
76807;SDS011;65758;45.458;11.062;2024-01-11T10:37:38;25.90;;;15.50;;
76807;SDS011;65758;45.458;11.062;2024-01-11T10:40:06;28.50;;;16.00;;
76807;SDS011;65758;45.458;11.062;2024-01-11T10:42:42;26.10;;;16.20;;
76807;SDS011;65758;45.458;11.062;2024-01-11T10:45:16;24.50;;;15.50;;
76807;SDS011;65758;45.458;11.062;2024-01-11T10:47:54;30.60;;;16.40;;
76807;SDS011;65758;45.458;11.062;2024-01-11T10:50:30;28.10;;;16.50;;
76807;SDS011;65758;45.458;11.062;2024-01-11T10:53:08;30.90;;;17.90;;
76807;SDS011;65758;45.458;11.062;2024-01-11T10:55:52;32.80;;;17.60;;
76807;SDS011;65758;45.458;11.062;2024-01-11T10:58:20;26.40;;;17.30;;
76807;SDS011;65758;45.458;11.062;2024-01-11T11:00:48;30.00;;;17.70;;
76807;SDS011;65758;45.458;11.062;2024-01-11T11:03:17;26.70;;;15.70;;
76807;SDS011;65758;45.458;11.062;2024-01-11T11:05:48;28.80;;;17.40;;
76807;SDS011;65758;45.458;11.062;2024-01-11T11:08:19;33.00;;;15.70;;
76807;SDS011;65758;45.458;11.062;2024-01-11T11:10:47;28.90;;;17.30;;
76807;SDS011;65758;45.458;11.062;2024-01-11T11:13:15;27.80;;;17.30;;
76807;SDS011;65758;45.458;11.062;2024-01-11T11:15:46;26.60;;;15.90;;
76807;SDS011;65758;45.458;11.062;2024-01-11T11:18:15;28.50;;;17.60;;
76807;SDS011;65758;45.458;11.062;2024-01-11T11:20:45;30.70;;;16.60;;
76807;SDS011;65758;45.458;11.062;2024-01-11T11:23:13;27.90;;;15.90;;
76807;SDS011;65758;45.458;11.062;2024-01-11T11:25:47;24.70;;;15.50;;
76807;SDS011;65758;45.458;11.062;2024-01-11T11:28:16;28.20;;;16.60;;
76807;SDS011;65758;45.458;11.062;2024-01-11T11:30:45;31.00;;;16.90;;
76807;SDS011;65758;45.458;11.062;2024-01-11T11:33:16;30.40;;;17.70;;
76807;SDS011;65758;45.458;11.062;2024-01-11T11:35:48;26.30;;;17.30;;
76807;SDS011;65758;45.458;11.062;2024-01-11T11:38:18;29.00;;;16.90;;
76807;SDS011;65758;45.458;11.062;2024-01-11T11:40:48;28.10;;;16.00;;
76807;SDS011;65758;45.458;11.062;2024-01-11T11:43:20;29.20;;;17.40;;
76807;SDS011;65758;45.458;11.062;2024-01-11T11:45:48;25.80;;;16.00;;
76807;SDS011;65758;45.458;11.062;2024-01-11T11:53:35;28.30;;;16.40;;
76807;SDS011;65758;45.458;11.062;2024-01-11T11:56:03;30.20;;;18.60;;
76807;SDS011;65758;45.458;11.062;2024-01-11T11:58:32;27.40;;;16.70;;
76807;SDS011;65758;45.458;11.062;2024-01-11T12:01:00;29.50;;;17.10;;
76807;SDS011;65758;45.458;11.062;2024-01-11T12:03:30;28.00;;;16.50;;
76807;SDS011;65758;45.458;11.062;2024-01-11T12:06:04;32.70;;;19.30;;
76807;SDS011;65758;45.458;11.062;2024-01-11T12:08:34;30.00;;;18.10;;
76807;SDS011;65758;45.458;11.062;2024-01-11T12:11:06;30.50;;;17.80;;
76807;SDS011;65758;45.458;11.062;2024-01-11T12:13:33;31.50;;;17.60;;
76807;SDS011;65758;45.458;11.062;2024-01-11T12:16:02;29.50;;;18.10;;
76807;SDS011;65758;45.458;11.062;2024-01-11T12:18:30;28.60;;;18.00;;
76807;SDS011;65758;45.458;11.062;2024-01-11T12:20:57;26.50;;;16.80;;
76807;SDS011;65758;45.458;11.062;2024-01-11T12:23:23;29.60;;;17.30;;
76807;SDS011;65758;45.458;11.062;2024-01-11T12:25:50;29.40;;;17.20;;
76807;SDS011;65758;45.458;11.062;2024-01-11T12:28:17;31.10;;;18.10;;
76807;SDS011;65758;45.458;11.062;2024-01-11T12:30:45;29.70;;;17.70;;
76807;SDS011;65758;45.458;11.062;2024-01-11T12:33:12;30.10;;;17.80;;
76807;SDS011;65758;45.458;11.062;2024-01-11T12:35:40;29.10;;;17.80;;
76807;SDS011;65758;45.458;11.062;2024-01-11T12:38:08;27.60;;;18.50;;
76807;SDS011;65758;45.458;11.062;2024-01-11T12:40:36;30.90;;;19.40;;
76807;SDS011;65758;45.458;11.062;2024-01-11T12:43:04;28.60;;;17.20;;
76807;SDS011;65758;45.458;11.062;2024-01-11T12:45:31;32.50;;;18.70;;
76807;SDS011;65758;45.458;11.062;2024-01-11T12:47:59;33.50;;;16.90;;
76807;SDS011;65758;45.458;11.062;2024-01-11T12:50:27;28.70;;;17.70;;
76807;SDS011;65758;45.458;11.062;2024-01-11T12:53:11;31.90;;;18.70;;
76807;SDS011;65758;45.458;11.062;2024-01-11T12:55:45;32.60;;;17.50;;
76807;SDS011;65758;45.458;11.062;2024-01-11T12:58:23;28.90;;;18.10;;
76807;SDS011;65758;45.458;11.062;2024-01-11T13:00:53;32.70;;;17.10;;
76807;SDS011;65758;45.458;11.062;2024-01-11T13:03:20;25.20;;;16.80;;
76807;SDS011;65758;45.458;11.062;2024-01-11T13:05:48;32.10;;;18.30;;
76807;SDS011;65758;45.458;11.062;2024-01-11T13:08:16;32.90;;;16.80;;
76807;SDS011;65758;45.458;11.062;2024-01-11T13:10:46;23.50;;;17.00;;
76807;SDS011;65758;45.458;11.062;2024-01-11T13:13:15;31.20;;;18.60;;
76807;SDS011;65758;45.458;11.062;2024-01-11T13:15:42;26.20;;;17.20;;
76807;SDS011;65758;45.458;11.062;2024-01-11T13:20:36;25.20;;;15.80;;
76807;SDS011;65758;45.458;11.062;2024-01-11T13:23:19;28.40;;;16.80;;
76807;SDS011;65758;45.458;11.062;2024-01-11T13:25:48;25.80;;;17.20;;
76807;SDS011;65758;45.458;11.062;2024-01-11T13:28:18;28.20;;;17.30;;
76807;SDS011;65758;45.458;11.062;2024-01-11T13:30:46;29.30;;;17.40;;
76807;SDS011;65758;45.458;11.062;2024-01-11T13:33:14;27.40;;;17.60;;
76807;SDS011;65758;45.458;11.062;2024-01-11T13:35:46;24.70;;;16.10;;
76807;SDS011;65758;45.458;11.062;2024-01-11T13:38:13;26.10;;;16.00;;
76807;SDS011;65758;45.458;11.062;2024-01-11T13:40:40;23.40;;;16.60;;
76807;SDS011;65758;45.458;11.062;2024-01-11T13:43:09;25.70;;;15.70;;
76807;SDS011;65758;45.458;11.062;2024-01-11T13:45:37;29.00;;;16.30;;
76807;SDS011;65758;45.458;11.062;2024-01-11T13:48:05;27.70;;;15.90;;
76807;SDS011;65758;45.458;11.062;2024-01-11T13:50:33;25.40;;;16.60;;
76807;SDS011;65758;45.458;11.062;2024-01-11T13:53:01;26.90;;;15.20;;
76807;SDS011;65758;45.458;11.062;2024-01-11T13:55:28;31.60;;;16.40;;
76807;SDS011;65758;45.458;11.062;2024-01-11T13:58:05;26.00;;;15.60;;
76807;SDS011;65758;45.458;11.062;2024-01-11T14:00:32;27.70;;;16.60;;
76807;SDS011;65758;45.458;11.062;2024-01-11T14:03:00;24.70;;;16.20;;
76807;SDS011;65758;45.458;11.062;2024-01-11T14:05:27;25.10;;;14.90;;
76807;SDS011;65758;45.458;11.062;2024-01-11T14:07:54;24.90;;;15.00;;
76807;SDS011;65758;45.458;11.062;2024-01-11T14:10:25;27.60;;;15.90;;
76807;SDS011;65758;45.458;11.062;2024-01-11T14:12:54;28.10;;;16.80;;
76807;SDS011;65758;45.458;11.062;2024-01-11T14:15:21;28.90;;;16.90;;
76807;SDS011;65758;45.458;11.062;2024-01-11T14:17:48;27.10;;;17.10;;
76807;SDS011;65758;45.458;11.062;2024-01-11T14:20:16;24.60;;;14.50;;
76807;SDS011;65758;45.458;11.062;2024-01-11T14:22:44;27.50;;;16.90;;
76807;SDS011;65758;45.458;11.062;2024-01-11T14:25:22;24.70;;;15.50;;
76807;SDS011;65758;45.458;11.062;2024-01-11T14:27:51;26.00;;;17.20;;
76807;SDS011;65758;45.458;11.062;2024-01-11T14:30:19;23.70;;;16.80;;
76807;SDS011;65758;45.458;11.062;2024-01-11T14:32:49;26.20;;;17.50;;
76807;SDS011;65758;45.458;11.062;2024-01-11T14:35:16;29.70;;;17.60;;
76807;SDS011;65758;45.458;11.062;2024-01-11T14:37:44;32.40;;;20.40;;
76807;SDS011;65758;45.458;11.062;2024-01-11T14:40:11;26.10;;;17.30;;
76807;SDS011;65758;45.458;11.062;2024-01-11T14:42:39;31.60;;;19.10;;
76807;SDS011;65758;45.458;11.062;2024-01-11T14:45:06;33.10;;;20.60;;
76807;SDS011;65758;45.458;11.062;2024-01-11T14:47:34;36.10;;;21.00;;
76807;SDS011;65758;45.458;11.062;2024-01-11T14:50:02;34.00;;;20.70;;
76807;SDS011;65758;45.458;11.062;2024-01-11T14:52:37;32.10;;;20.40;;
76807;SDS011;65758;45.458;11.062;2024-01-11T14:55:08;31.10;;;20.10;;
76807;SDS011;65758;45.458;11.062;2024-01-11T14:57:37;25.30;;;17.50;;
76807;SDS011;65758;45.458;11.062;2024-01-11T15:00:06;31.40;;;18.70;;
76807;SDS011;65758;45.458;11.062;2024-01-11T15:02:37;29.00;;;17.90;;
76807;SDS011;65758;45.458;11.062;2024-01-11T15:05:04;32.10;;;20.10;;
76807;SDS011;65758;45.458;11.062;2024-01-11T15:07:32;26.00;;;18.90;;
76807;SDS011;65758;45.458;11.062;2024-01-11T15:10:07;31.90;;;19.60;;
76807;SDS011;65758;45.458;11.062;2024-01-11T15:12:34;32.00;;;20.70;;
76807;SDS011;65758;45.458;11.062;2024-01-11T15:15:02;33.70;;;21.60;;
76807;SDS011;65758;45.458;11.062;2024-01-11T15:17:32;32.80;;;21.30;;
76807;SDS011;65758;45.458;11.062;2024-01-11T15:19:59;31.90;;;19.30;;
76807;SDS011;65758;45.458;11.062;2024-01-11T15:22:27;30.70;;;21.10;;
76807;SDS011;65758;45.458;11.062;2024-01-11T15:24:54;36.30;;;23.00;;
76807;SDS011;65758;45.458;11.062;2024-01-11T15:27:21;42.80;;;25.20;;
76807;SDS011;65758;45.458;11.062;2024-01-11T15:29:48;41.40;;;25.10;;
76807;SDS011;65758;45.458;11.062;2024-01-11T15:32:17;35.70;;;23.80;;
76807;SDS011;65758;45.458;11.062;2024-01-11T15:34:44;31.80;;;21.10;;
76807;SDS011;65758;45.458;11.062;2024-01-11T15:37:11;30.60;;;20.40;;
76807;SDS011;65758;45.458;11.062;2024-01-11T15:39:38;32.40;;;19.60;;
76807;SDS011;65758;45.458;11.062;2024-01-11T15:42:05;32.80;;;21.10;;
76807;SDS011;65758;45.458;11.062;2024-01-11T15:44:32;34.10;;;20.40;;
76807;SDS011;65758;45.458;11.062;2024-01-11T15:47:01;37.80;;;22.20;;
76807;SDS011;65758;45.458;11.062;2024-01-11T15:49:28;35.90;;;21.30;;